Time;durP1;ratioP1;P1;durP2;ratioP2;P2;SDS_P1;SDS_P2;PMS_P1;PMS_P2;Temp;Humidity;BMP_temperature;BMP_pressure;BME280_temperature;BME280_humidity;BME280_pressure;Samples;Min_cycle;Max_cycle;Signal;HPM_P1;HPM_P2
2023/04/29 00:00:50;;;;;;;;;28.00;24.60;;;;;12.53;44.82;98578.78;5998392;29;96492;-63
2023/04/29 00:03:54;;;;;;;;;28.20;25.80;;;;;12.46;44.96;98575.41;6020435;29;98198;-63
2023/04/29 00:06:57;;;;;;;;;31.50;26.25;;;;;12.40;45.27;98575.56;6003073;29;98389;-63
2023/04/29 00:10:00;;;;;;;;;25.80;24.00;;;;;12.41;45.14;98580.69;6020771;29;96527;-63
2023/04/29 00:13:06;;;;;;;;;27.20;22.20;;;;;12.43;45.24;98581.28;6020704;29;96498;-63
2023/04/29 00:16:10;;;;;;;;;29.00;26.00;;;;;12.36;45.35;98572.53;6020109;29;96509;-63
2023/04/29 00:19:14;;;;;;;;;24.00;23.40;;;;;12.37;45.13;98574.13;6020824;29;97477;-63
2023/04/29 00:22:17;;;;;;;;;27.50;25.75;;;;;12.35;45.21;98576.28;6020562;29;96463;-63
2023/04/29 00:25:21;;;;;;;;;24.80;23.20;;;;;12.33;45.14;98577.56;6020384;29;96436;-63
2023/04/29 00:28:24;;;;;;;;;28.00;25.20;;;;;12.35;44.91;98568.16;6019283;29;96663;-63
2023/04/29 00:31:31;;;;;;;;;27.75;26.75;;;;;12.37;45.05;98571.44;6019782;29;96935;-63
2023/04/29 00:34:34;;;;;;;;;27.00;26.00;;;;;12.36;45.49;98569.00;6019171;29;96986;-63
2023/04/29 00:37:38;;;;;;;;;27.75;26.00;;;;;12.32;45.06;98573.22;6003235;29;96470;-63
2023/04/29 00:40:42;;;;;;;;;27.20;25.00;;;;;12.29;45.35;98576.41;6020119;29;97143;-63
2023/04/29 00:43:45;;;;;;;;;29.00;27.00;;;;;12.25;45.08;98576.06;6020053;29;97175;-63
2023/04/29 00:46:50;;;;;;;;;28.40;28.00;;;;;12.20;45.28;98570.56;6018767;29;96513;-63
2023/04/29 00:49:54;;;;;;;;;30.00;27.60;;;;;12.20;45.03;98564.34;6002744;29;98234;-63
2023/04/29 00:52:57;;;;;;;;;30.40;27.40;;;;;12.22;45.28;98565.72;6020005;29;96838;-63
2023/04/29 00:56:01;;;;;;;;;27.00;25.60;;;;;12.25;44.90;98559.03;6020072;29;96286;-63
2023/04/29 00:59:05;;;;;;;;;27.00;25.80;;;;;12.27;44.68;98565.00;6003348;28;96611;-63
2023/04/29 01:02:10;;;;;;;;;33.00;27.00;;;;;12.27;45.27;98559.59;6019525;29;96518;-63
2023/04/29 01:05:14;;;;;;;;;26.00;25.00;;;;;12.32;44.89;98557.00;6019728;29;96783;-63
2023/04/29 01:08:33;;;;;;;;;33.60;29.40;;;;;12.40;45.00;98562.88;6019619;29;96980;-63
2023/04/29 01:11:47;;;;;;;;;27.60;25.60;;;;;12.44;45.04;98568.59;6018438;29;96815;-63
2023/04/29 01:15:01;;;;;;;;;26.00;23.60;;;;;12.37;45.12;98567.91;5996404;29;96363;-63
2023/04/29 01:18:12;;;;;;;;;30.00;27.00;;;;;12.25;45.66;98567.97;5967519;29;99209;-63
2023/04/29 01:21:16;;;;;;;;;32.00;28.00;;;;;12.18;46.08;98561.03;5983628;29;98169;-63
2023/04/29 01:24:21;;;;;;;;;28.20;27.00;;;;;12.13;46.00;98557.19;5983451;29;96556;-63
2023/04/29 01:27:30;;;;;;;;;24.25;22.00;;;;;12.12;46.43;98562.81;5981575;29;97313;-63
2023/04/29 01:30:47;;;;;;;;;29.75;27.75;;;;;12.11;46.70;98564.72;6022031;29;96524;-63
2023/04/29 01:34:05;;;;;;;;;24.80;24.80;;;;;12.13;46.49;98568.00;5990815;29;98426;-63
2023/04/29 01:37:17;;;;;;;;;26.33;24.33;;;;;12.14;47.05;98558.84;6006320;29;96528;-63
2023/04/29 01:40:36;;;;;;;;;28.00;25.00;;;;;12.07;46.62;98538.44;6006486;29;96521;-63
2023/04/29 01:43:52;;;;;;;;;25.75;23.50;;;;;12.29;46.54;98562.91;6006387;29;96662;-63
2023/04/29 01:47:00;;;;;;;;;26.40;23.60;;;;;12.33;46.76;98558.66;6007035;29;96379;-63
2023/04/29 01:50:11;;;;;;;;;26.00;25.00;;;;;12.38;46.35;98559.56;5990819;29;96712;-63
2023/04/29 01:53:14;;;;;;;;;25.60;23.80;;;;;12.40;46.49;98554.75;6005704;29;96545;-63
2023/04/29 01:56:20;;;;;;;;;28.00;25.50;;;;;12.46;46.46;98552.97;5990026;29;96678;-63
2023/04/29 01:59:41;;;;;;;;;29.00;25.00;;;;;12.58;46.49;98549.13;6005841;29;96902;-63
2023/04/29 02:03:04;;;;;;;;;28.00;25.50;;;;;12.66;45.93;98549.81;5999997;29;96310;-63
2023/04/29 02:06:14;;;;;;;;;32.25;28.00;;;;;12.77;45.79;98544.34;5987873;28;96463;-63
2023/04/29 02:09:18;;;;;;;;;35.20;30.80;;;;;12.89;45.53;98550.50;6021698;29;97586;-63
2023/04/29 02:12:29;;;;;;;;;33.00;30.00;;;;;12.99;45.13;98544.44;6021688;29;97226;-63
2023/04/29 02:15:32;;;;;;;;;37.60;32.60;;;;;13.06;44.54;98558.63;6005330;29;96787;-63
2023/04/29 02:18:36;;;;;;;;;35.60;31.40;;;;;12.94;45.13;98557.88;6020899;29;96518;-63
2023/04/29 02:21:40;;;;;;;;;31.75;28.75;;;;;13.00;45.40;98543.34;6021349;29;96544;-63
2023/04/29 02:24:44;;;;;;;;;32.60;30.00;;;;;13.08;45.71;98547.56;6021106;29;96793;-63
2023/04/29 02:27:48;;;;;;;;;29.20;27.60;;;;;13.15;45.47;98557.16;6005551;29;96884;-63
2023/04/29 02:30:52;;;;;;;;;32.00;30.00;;;;;13.26;44.97;98558.16;6020200;29;96577;-63
2023/04/29 02:33:55;;;;;;;;;31.40;30.00;;;;;13.32;44.76;98563.41;6003990;29;99174;-63
2023/04/29 02:36:58;;;;;;;;;32.80;30.00;;;;;13.36;43.99;98558.31;6020848;29;96980;-64
2023/04/29 02:40:02;;;;;;;;;29.50;27.50;;;;;13.32;43.88;98547.16;6020925;29;96860;-64
2023/04/29 02:43:08;;;;;;;;;29.00;27.00;;;;;13.40;44.32;98552.16;6005008;29;96653;-63
2023/04/29 02:46:12;;;;;;;;;28.25;25.25;;;;;13.38;44.44;98548.91;6022013;29;97575;-63
2023/04/29 02:49:15;;;;;;;;;29.60;27.60;;;;;13.50;43.94;98547.97;6020770;29;96743;-63
2023/04/29 02:52:19;;;;;;;;;25.00;24.25;;;;;13.50;44.27;98537.94;6020451;29;96492;-63
2023/04/29 02:55:24;;;;;;;;;30.00;28.00;;;;;13.53;44.20;98540.19;6020557;29;96370;-63
2023/04/29 02:58:28;;;;;;;;;27.60;26.00;;;;;13.55;43.81;98543.44;6012451;28;97017;-63
2023/04/29 03:01:31;;;;;;;;;28.80;27.20;;;;;13.54;44.20;98544.50;6019906;29;96791;-63
2023/04/29 03:04:35;;;;;;;;;26.80;25.00;;;;;13.56;44.17;98549.69;5988938;29;98562;-63
2023/04/29 03:07:38;;;;;;;;;29.40;27.00;;;;;13.60;44.02;98538.09;6004770;28;99226;-63
2023/04/29 03:10:42;;;;;;;;;31.00;27.40;;;;;13.65;44.81;98540.06;6020229;29;96383;-63
2023/04/29 03:13:46;;;;;;;;;28.60;27.40;;;;;13.67;44.96;98535.22;5989291;29;98639;-63
2023/04/29 03:16:50;;;;;;;;;26.00;23.00;;;;;13.68;44.98;98531.44;5999810;29;96501;-63
2023/04/29 03:19:54;;;;;;;;;28.00;26.00;;;;;13.72;44.63;98536.09;6018937;29;96591;-63
2023/04/29 03:22:57;;;;;;;;;25.75;25.00;;;;;13.76;44.44;98528.28;6003528;29;98676;-64
2023/04/29 03:26:01;;;;;;;;;27.50;25.75;;;;;13.75;44.72;98532.06;6019510;29;96393;-64
2023/04/29 03:29:06;;;;;;;;;28.50;25.50;;;;;13.77;44.84;98532.66;6019819;29;96391;-63
2023/04/29 03:32:10;;;;;;;;;28.00;27.00;;;;;13.74;44.95;98522.28;6005223;29;96736;-63
2023/04/29 03:35:13;;;;;;;;;26.60;24.60;;;;;13.77;44.93;98532.66;6000553;29;97176;-63
2023/04/29 03:38:36;;;;;;;;;30.00;28.00;;;;;13.76;44.89;98531.00;6002208;29;97329;-63
2023/04/29 03:41:40;;;;;;;;;26.20;25.20;;;;;13.75;45.07;98529.34;6018886;29;96617;-63
2023/04/29 03:44:45;;;;;;;;;26.60;24.00;;;;;13.76;45.60;98531.00;6018997;29;97476;-63
2023/04/29 03:47:48;;;;;;;;;25.80;24.00;;;;;13.76;46.37;98529.13;6017986;29;96774;-63
2023/04/29 03:50:52;;;;;;;;;26.20;24.60;;;;;13.76;46.50;98534.53;6003592;29;96865;-63
2023/04/29 03:53:56;;;;;;;;;27.00;25.50;;;;;13.78;46.33;98520.75;6019584;29;96335;-63
2023/04/29 03:57:03;;;;;;;;;27.00;23.60;;;;;13.81;46.91;98522.94;6000020;29;96948;-63
2023/04/29 04:00:09;;;;;;;;;30.40;28.40;;;;;13.87;46.50;98539.03;6011184;29;96774;-63
2023/04/29 04:03:15;;;;;;;;;29.00;27.40;;;;;13.87;46.81;98539.03;6020882;29;97032;-63
2023/04/29 04:06:19;;;;;;;;;27.80;27.80;;;;;13.87;47.56;98539.03;6019297;29;96434;-63
2023/04/29 04:09:24;;;;;;;;;25.00;23.00;;;;;13.87;47.12;98527.38;6019210;29;96844;-63
2023/04/29 04:12:27;;;;;;;;;29.40;26.00;;;;;13.85;47.29;98524.06;6019135;29;96901;-63
2023/04/29 04:15:32;;;;;;;;;29.40;28.00;;;;;13.91;47.50;98533.09;5979421;29;97888;-63
2023/04/29 04:18:36;;;;;;;;;26.20;26.00;;;;;13.97;48.01;98527.50;5964958;29;98492;-63
2023/04/29 04:21:40;;;;;;;;;31.40;29.40;;;;;13.98;48.33;98531.81;5980462;29;96604;-63
2023/04/29 04:24:45;;;;;;;;;27.20;25.80;;;;;13.97;48.14;98532.91;5980535;29;96776;-63
2023/04/29 04:27:49;;;;;;;;;29.00;27.00;;;;;14.00;47.93;98524.28;6000265;29;96400;-63
2023/04/29 04:31:07;;;;;;;;;29.00;28.00;;;;;14.04;47.88;98521.88;6017427;29;97090;-63
2023/04/29 04:34:11;;;;;;;;;33.40;29.00;;;;;14.04;47.92;98530.00;5985943;29;96907;-63
2023/04/29 04:37:15;;;;;;;;;32.00;29.00;;;;;14.03;47.49;98525.63;6003331;28;98311;-63
2023/04/29 04:40:23;;;;;;;;;33.00;29.00;;;;;14.06;47.79;98511.59;6018882;29;98187;-63
2023/04/29 04:43:51;;;;;;;;;32.75;29.00;;;;;14.05;47.79;98520.81;6002813;29;98084;-63
2023/04/29 04:47:14;;;;;;;;;34.80;31.40;;;;;14.03;47.61;98514.78;6017133;29;96863;-63
2023/04/29 04:50:25;;;;;;;;;28.60;27.60;;;;;14.10;48.14;98515.44;6001418;28;96668;-63
2023/04/29 04:53:28;;;;;;;;;31.00;28.00;;;;;14.17;48.66;98521.50;5992608;29;97525;-63
2023/04/29 04:56:36;;;;;;;;;29.60;28.00;;;;;14.25;48.57;98521.03;6010972;29;96876;-63
2023/04/29 04:59:41;;;;;;;;;29.00;26.00;;;;;14.30;48.69;98519.22;6017708;29;96540;-63
2023/04/29 05:02:46;;;;;;;;;31.80;29.00;;;;;14.38;48.32;98517.13;6045980;28;96360;-62
2023/04/29 05:05:53;;;;;;;;;36.00;32.00;;;;;14.46;48.28;98524.84;6032459;28;99154;-62
2023/04/29 05:08:56;;;;;;;;;30.75;28.00;;;;;14.54;48.30;98517.03;6030824;28;96271;-62
2023/04/29 05:12:00;;;;;;;;;33.80;29.60;;;;;14.60;48.47;98520.63;6048896;28;96278;-61
2023/04/29 05:15:07;;;;;;;;;28.00;27.00;;;;;14.67;48.96;98522.03;6049219;28;96291;-61
2023/04/29 05:18:12;;;;;;;;;31.50;29.75;;;;;14.67;48.61;98508.47;6048766;28;96249;-61
2023/04/29 05:21:18;;;;;;;;;28.40;25.60;;;;;14.81;48.63;98517.00;6040350;28;96849;-61
2023/04/29 05:24:22;;;;;;;;;33.60;30.00;;;;;14.87;48.42;98526.03;6047770;28;96822;-61
2023/04/29 05:27:25;;;;;;;;;35.00;31.00;;;;;14.94;48.47;98534.78;6049319;28;96366;-62
2023/04/29 05:30:29;;;;;;;;;32.00;29.00;;;;;14.99;48.80;98526.69;6047094;28;96386;-61
2023/04/29 05:33:34;;;;;;;;;34.20;30.00;;;;;15.00;48.67;98523.69;6046900;28;96265;-61
2023/04/29 05:36:37;;;;;;;;;35.40;31.40;;;;;14.94;48.50;98516.59;6031655;28;96663;-62
2023/04/29 05:39:40;;;;;;;;;33.60;31.40;;;;;14.96;48.49;98519.84;6037649;28;96316;-62
2023/04/29 05:42:51;;;;;;;;;37.20;33.00;;;;;14.99;49.43;98521.25;6041824;28;96294;-61
2023/04/29 05:45:55;;;;;;;;;31.00;30.00;;;;;15.04;50.11;98532.16;6041718;28;96254;-62
2023/04/29 05:49:00;;;;;;;;;35.60;30.60;;;;;15.12;50.72;98529.78;6024218;28;96880;-62
2023/04/29 05:52:05;;;;;;;;;30.60;28.00;;;;;15.23;50.97;98538.81;6048723;28;96150;-62
2023/04/29 05:55:14;;;;;;;;;28.20;25.80;;;;;15.38;51.58;98538.94;6032758;28;96327;-62
2023/04/29 05:58:18;;;;;;;;;26.67;24.67;;;;;15.47;51.52;98525.69;6031423;29;98397;-62
2023/04/29 06:01:21;;;;;;;;;22.80;21.00;;;;;15.70;51.00;98535.34;6020986;29;96724;-62
2023/04/29 06:04:27;;;;;;;;;24.20;23.20;;;;;15.84;51.28;98537.34;6035210;29;96297;-61
2023/04/29 06:07:40;;;;;;;;;30.60;29.60;;;;;15.78;51.35;98532.16;6051944;28;96756;-62
2023/04/29 06:10:55;;;;;;;;;31.67;30.00;;;;;15.76;51.57;98528.88;6036302;29;96217;-62
2023/04/29 06:14:01;;;;;;;;;29.00;26.00;;;;;15.80;51.50;98524.53;6021055;29;96707;-62
2023/04/29 06:17:04;;;;;;;;;33.40;30.00;;;;;15.90;51.33;98530.84;6036018;28;96305;-62
2023/04/29 06:20:10;;;;;;;;;34.00;29.80;;;;;16.01;51.48;98527.09;6019339;28;98294;-62
2023/04/29 06:23:14;;;;;;;;;27.60;26.60;;;;;16.18;51.44;98520.63;6052191;28;96248;-62
2023/04/29 06:26:17;;;;;;;;;30.00;28.00;;;;;16.25;51.08;98522.00;6033181;28;98149;-63
2023/04/29 06:29:21;;;;;;;;;30.00;28.00;;;;;16.38;50.46;98523.41;6018317;29;96694;-62
2023/04/29 06:32:26;;;;;;;;;29.40;27.00;;;;;16.50;49.63;98525.91;6034632;29;97223;-62
2023/04/29 06:35:31;;;;;;;;;25.60;25.00;;;;;16.65;49.98;98526.78;6050292;28;96353;-62
2023/04/29 06:39:03;;;;;;;;;29.20;27.40;;;;;16.81;50.19;98514.00;6055534;28;96249;-62
2023/04/29 06:42:15;;;;;;;;;28.20;26.60;;;;;16.99;49.06;98523.53;6034505;28;96678;-62
2023/04/29 06:45:37;;;;;;;;;22.00;21.40;;;;;17.15;49.34;98512.34;6050229;28;96639;-62
2023/04/29 06:48:53;;;;;;;;;25.60;24.00;;;;;17.35;49.12;98521.63;6050521;28;96531;-62
2023/04/29 06:51:58;;;;;;;;;27.00;25.00;;;;;17.54;48.82;98522.69;6051522;28;96358;-62
2023/04/29 06:55:02;;;;;;;;;23.40;22.40;;;;;17.56;48.59;98499.50;6031547;29;96690;-62
2023/04/29 06:58:05;;;;;;;;;21.60;20.40;;;;;17.86;48.34;98525.91;6051237;28;96265;-62
2023/04/29 07:01:09;;;;;;;;;22.00;21.40;;;;;18.03;47.78;98529.09;6035702;28;98406;-61
2023/04/29 07:04:13;;;;;;;;;25.00;23.00;;;;;18.23;47.20;98521.97;6050462;28;96903;-58
2023/04/29 07:07:18;;;;;;;;;24.00;21.40;;;;;18.39;46.10;98518.03;6051282;28;96337;-58
2023/04/29 07:10:21;;;;;;;;;21.20;19.60;;;;;18.55;45.58;98522.34;6033093;28;96326;-59
2023/04/29 07:13:25;;;;;;;;;27.00;23.00;;;;;18.64;45.42;98520.66;6034369;28;96801;-59
2023/04/29 07:16:28;;;;;;;;;11.60;11.00;;;;;18.81;44.32;98521.09;6048978;28;96915;-59
2023/04/29 07:19:31;;;;;;;;;16.00;15.00;;;;;19.00;44.88;98524.78;6050547;28;96324;-59
2023/04/29 07:22:36;;;;;;;;;6.20;6.20;;;;;18.97;43.09;98522.59;6050883;28;96345;-58
2023/04/29 07:25:39;;;;;;;;;10.00;9.00;;;;;18.90;43.01;98518.56;6051025;28;96351;-59
2023/04/29 07:28:44;;;;;;;;;5.75;5.75;;;;;18.59;43.01;98515.22;6050517;28;96323;-59
2023/04/29 07:31:47;;;;;;;;;7.75;7.75;;;;;18.71;42.41;98512.97;6048215;28;96802;-59
2023/04/29 07:34:51;;;;;;;;;8.00;7.00;;;;;19.30;42.69;98520.16;6048282;28;96417;-59
2023/04/29 07:37:57;;;;;;;;;9.00;8.00;;;;;19.74;41.39;98518.09;6027226;28;96356;-59
2023/04/29 07:41:02;;;;;;;;;8.00;8.00;;;;;20.11;40.81;98517.41;6013437;28;97362;-60
2023/04/29 07:44:05;;;;;;;;;9.20;9.00;;;;;20.61;39.17;98507.72;6034792;28;97094;-59
2023/04/29 07:47:08;;;;;;;;;8.00;8.00;;;;;20.18;38.34;98506.09;6049816;28;96438;-59
2023/04/29 07:50:12;;;;;;;;;9.40;9.40;;;;;20.64;37.63;98522.75;6049755;28;96267;-59
2023/04/29 07:53:17;;;;;;;;;9.60;8.40;;;;;20.90;37.91;98499.34;6050960;28;96345;-60
2023/04/29 07:56:22;;;;;;;;;11.00;10.00;;;;;21.12;36.98;98505.00;6049485;28;96081;-60
2023/04/29 09:12:19;;;;;;;;;8.00;8.00;;;;;22.67;33.87;98514.38;6324496;23;98770;-59
2023/04/29 09:15:23;;;;;;;;;7.75;7.00;;;;;23.03;32.77;98515.19;6062543;28;96769;-58
2023/04/29 09:18:44;;;;;;;;;9.00;9.00;;;;;23.54;32.95;98505.69;6069744;28;97028;-58
2023/04/29 09:21:54;;;;;;;;;10.00;10.00;;;;;24.15;31.83;98508.38;6072869;28;96316;-58
2023/04/29 09:25:12;;;;;;;;;9.60;8.00;;;;;24.77;30.86;98501.88;6073151;28;96315;-59
2023/04/29 09:28:16;;;;;;;;;9.40;8.40;;;;;25.32;29.97;98508.34;6073899;28;96505;-59
2023/04/29 09:31:28;;;;;;;;;8.00;8.00;;;;;25.82;29.46;98510.53;6977028;23;98925;-59
2023/04/29 09:34:34;;;;;;;;;5.00;5.00;;;;;25.93;29.10;98509.03;6026700;28;96267;-59
2023/04/29 09:37:37;;;;;;;;;8.25;7.00;;;;;26.10;28.96;98508.13;6034261;28;96311;-58
2023/04/29 09:40:42;;;;;;;;;8.80;8.80;;;;;26.10;28.83;98506.16;6030492;28;96381;-57
2023/04/29 09:44:06;;;;;;;;;7.75;7.00;;;;;25.92;28.70;98495.53;6030672;28;96815;-58
2023/04/29 09:47:10;;;;;;;;;9.00;9.00;;;;;25.76;29.08;98495.28;6030627;28;96242;-59
2023/04/29 09:50:15;;;;;;;;;9.60;9.00;;;;;25.65;28.89;98496.78;6031088;28;96282;-58
2023/04/29 09:53:30;;;;;;;;;9.50;8.50;;;;;25.38;28.93;98490.50;6030589;28;96299;-58
2023/04/29 09:56:49;;;;;;;;;8.00;7.40;;;;;25.16;29.48;98485.19;6028451;28;98953;-59
2023/04/29 09:59:54;;;;;;;;;6.60;6.00;;;;;25.10;30.08;98486.50;6025643;29;96710;-59
2023/04/29 10:02:59;;;;;;;;;8.00;8.00;;;;;25.19;29.26;98487.28;6029348;28;96573;-58
2023/04/29 10:06:04;;;;;;;;;8.00;6.00;;;;;25.26;29.31;98492.31;6029678;28;96510;-59
2023/04/29 10:09:11;;;;;;;;;9.00;8.00;;;;;25.29;29.54;98486.94;6029112;28;97286;-59
2023/04/29 10:12:16;;;;;;;;;3.75;3.75;;;;;25.38;29.57;98484.97;6030077;28;96307;-58
2023/04/29 10:15:29;;;;;;;;;7.00;5.20;;;;;25.56;29.24;98480.22;6029563;28;96259;-59
2023/04/29 10:18:36;;;;;;;;;6.25;6.25;;;;;25.58;28.91;98483.50;6026402;28;96285;-58
2023/04/29 10:21:40;;;;;;;;;7.60;7.60;;;;;26.07;28.84;98479.22;6028980;28;96217;-59
2023/04/29 10:24:44;;;;;;;;;6.00;6.00;;;;;26.32;27.40;98471.16;6035522;28;96426;-58
2023/04/29 10:27:51;;;;;;;;;8.00;7.00;;;;;26.26;28.32;98459.47;6029798;28;96324;-58
2023/04/29 10:31:00;;;;;;;;;6.00;6.00;;;;;26.29;28.56;98473.44;6043509;28;96216;-58
2023/04/29 10:34:04;;;;;;;;;6.20;6.20;;;;;26.10;28.77;98466.69;6027456;28;96907;-59
2023/04/29 10:37:10;;;;;;;;;8.40;7.60;;;;;25.53;28.86;98469.03;6024807;28;96624;-59
2023/04/29 10:40:19;;;;;;;;;8.00;7.00;;;;;25.38;29.45;98467.59;6028531;28;98402;-59
2023/04/29 10:43:25;;;;;;;;;8.00;7.00;;;;;25.17;29.31;98458.41;6029388;28;96410;-59
2023/04/29 10:46:30;;;;;;;;;8.00;8.00;;;;;24.83;29.85;98450.94;6027410;28;97041;-58
2023/04/29 10:49:34;;;;;;;;;9.00;7.80;;;;;24.71;29.75;98453.56;6029499;28;96268;-59
2023/04/29 10:53:02;;;;;;;;;10.00;10.00;;;;;24.63;30.41;98455.16;6029709;28;96247;-59
2023/04/29 10:56:09;;;;;;;;;8.00;7.60;;;;;24.34;30.06;98455.78;6020359;28;96467;-59
2023/04/29 11:10:22;;;;;;;;;10.00;10.00;;;;;24.88;29.79;98451.63;6239537;23;98736;-59
2023/04/29 11:13:26;;;;;;;;;8.00;8.00;;;;;24.78;30.26;98448.34;6027566;28;96290;-59
2023/04/29 11:16:29;;;;;;;;;8.00;7.00;;;;;24.44;30.63;98449.16;6029336;28;96261;-59
2023/04/29 11:19:34;;;;;;;;;8.00;7.00;;;;;24.36;30.98;98436.19;6029116;28;96984;-59
2023/04/29 11:22:38;;;;;;;;;10.00;9.00;;;;;23.99;31.25;98440.31;6028430;28;96949;-60
2023/04/29 11:25:42;;;;;;;;;10.00;10.00;;;;;23.77;31.37;98429.38;6027241;28;97290;-59
2023/04/29 11:28:46;;;;;;;;;9.00;9.00;;;;;23.72;32.12;98447.66;6028662;28;96315;-59
2023/04/29 12:16:57;;;;;;;;;10.25;10.00;;;;;23.33;32.89;98436.59;7102561;23;99100;-59
2023/04/29 12:20:01;;;;;;;;;9.60;9.60;;;;;23.33;32.56;98434.66;6014265;28;97251;-59
2023/04/29 12:23:14;;;;;;;;;9.75;9.75;;;;;23.33;32.67;98442.91;6023933;28;96310;-59
2023/04/29 12:26:19;;;;;;;;;9.20;9.20;;;;;23.36;33.11;98441.47;6028475;28;96564;-59
2023/04/29 13:45:46;;;;;;;;;11.00;11.00;;;;;22.10;35.38;98401.38;6294297;23;98922;-60
2023/04/29 13:48:50;;;;;;;;;14.00;13.80;;;;;21.91;35.93;98396.00;6003194;28;96181;-61
2023/04/29 13:51:56;;;;;;;;;12.33;11.33;;;;;21.81;35.81;98404.44;6017116;28;96674;-61
2023/04/29 13:55:03;;;;;;;;;12.00;10.40;;;;;21.55;36.52;98406.09;6025510;28;96567;-61
2023/04/29 14:13:26;;;;;;;;;14.25;12.50;;;;;21.13;38.28;98409.88;7350937;23;99228;-62
2023/04/29 14:16:30;;;;;;;;;14.00;14.00;;;;;21.08;38.68;98404.47;6025395;28;96639;-60
2023/04/29 14:19:33;;;;;;;;;15.60;14.60;;;;;21.08;39.05;98412.72;6024582;28;96707;-60
2023/04/29 14:22:36;;;;;;;;;13.00;11.00;;;;;21.10;39.45;98408.56;6027132;28;96815;-60
2023/04/29 14:25:40;;;;;;;;;12.00;11.00;;;;;21.04;39.54;98398.00;6029423;28;96518;-60
2023/04/29 14:28:44;;;;;;;;;16.00;14.60;;;;;21.12;39.34;98411.81;6029402;28;96513;-60
2023/04/29 14:31:47;;;;;;;;;14.20;13.20;;;;;21.16;39.97;98412.03;6028617;28;96354;-61
2023/04/29 14:34:51;;;;;;;;;13.00;13.00;;;;;21.17;39.94;98405.44;6028529;28;96641;-61
2023/04/29 14:37:54;;;;;;;;;16.00;13.75;;;;;21.18;40.07;98413.38;6028890;28;96421;-60
2023/04/29 14:40:58;;;;;;;;;15.50;14.25;;;;;21.27;39.72;98405.25;6026499;28;96766;-61
2023/04/29 14:44:02;;;;;;;;;14.00;13.00;;;;;21.21;40.42;98409.19;6026466;28;96240;-60
2023/04/29 14:47:06;;;;;;;;;18.67;17.00;;;;;21.13;41.21;98415.34;6029647;28;96364;-61
2023/04/29 14:57:54;;;;;;;;;18.25;17.00;;;;;20.93;41.56;98424.75;7374710;23;99116;31
2023/04/29 15:00:59;;;;;;;;;20.20;18.00;;;;;20.91;41.63;98407.00;6018905;28;97118;-61
2023/04/29 15:04:03;;;;;;;;;17.60;17.20;;;;;20.94;41.26;98423.66;6019000;28;96781;-62
2023/04/29 15:07:06;;;;;;;;;16.33;15.33;;;;;21.05;41.28;98424.28;6011441;28;96715;-61
2023/04/29 15:10:10;;;;;;;;;17.60;17.40;;;;;21.10;41.38;98424.19;6022436;28;96307;-62
2023/04/29 15:13:13;;;;;;;;;19.00;17.00;;;;;21.05;41.11;98429.78;6012287;29;96677;-61
2023/04/29 15:16:18;;;;;;;;;17.00;16.80;;;;;21.00;41.13;98418.88;6005303;29;96348;-61
2023/04/29 15:19:23;;;;;;;;;18.00;16.00;;;;;21.07;41.57;98424.78;6005813;29;96278;-61
2023/04/29 15:22:27;;;;;;;;;19.00;18.00;;;;;21.16;41.33;98425.75;6005427;29;97472;-61
2023/04/29 15:25:32;;;;;;;;;19.00;18.40;;;;;21.20;41.03;98424.03;6007784;28;96460;-61
2023/04/29 15:28:35;;;;;;;;;17.25;16.25;;;;;21.26;40.59;98420.06;6026106;28;96543;-61
2023/04/29 15:31:40;;;;;;;;;19.20;16.00;;;;;21.32;40.39;98429.84;6004268;29;96336;-61
2023/04/29 15:34:43;;;;;;;;;16.60;15.60;;;;;21.38;40.11;98425.06;5998205;29;96384;-61
2023/04/29 15:37:47;;;;;;;;;16.00;16.00;;;;;21.49;39.87;98424.59;5996896;29;96544;-60
2023/04/29 15:40:50;;;;;;;;;16.20;14.60;;;;;21.59;39.56;98413.41;5982791;29;96235;-61
2023/04/29 15:43:54;;;;;;;;;18.00;17.80;;;;;21.65;39.15;98418.81;5997869;29;96659;-61
2023/04/29 15:46:58;;;;;;;;;18.40;17.00;;;;;21.59;38.79;98404.38;6019627;28;97279;-61
2023/04/29 15:50:02;;;;;;;;;16.00;15.60;;;;;21.90;38.78;98410.84;6003038;29;96406;-61
2023/04/29 15:53:05;;;;;;;;;15.80;15.00;;;;;22.08;37.72;98408.31;5989745;29;96381;-60
2023/04/29 15:56:08;;;;;;;;;17.00;16.00;;;;;22.24;37.73;98402.16;6005835;29;96242;-61
2023/04/29 15:59:12;;;;;;;;;16.60;14.60;;;;;22.34;37.56;98398.38;6004880;29;96321;-61
2023/04/29 16:02:16;;;;;;;;;13.00;13.00;;;;;22.39;37.32;98393.56;6005369;29;96352;-62
2023/04/29 16:05:20;;;;;;;;;13.80;13.80;;;;;22.42;37.33;98403.16;6004860;29;96388;-60
2023/04/29 16:08:23;;;;;;;;;15.25;14.25;;;;;22.40;36.96;98399.88;6004414;29;96474;-61
2023/04/29 16:11:26;;;;;;;;;14.50;12.75;;;;;22.33;37.08;98400.31;6004230;29;96320;-62
2023/04/29 16:14:30;;;;;;;;;14.60;14.00;;;;;22.30;37.11;98400.94;6005451;29;96372;-62
2023/04/29 16:17:34;;;;;;;;;12.40;11.40;;;;;22.29;37.47;98401.22;6004572;29;96937;-61
2023/04/29 16:20:38;;;;;;;;;13.50;13.00;;;;;22.30;37.58;98402.88;6020073;28;96289;-60
2023/04/29 16:23:41;;;;;;;;;14.40;13.60;;;;;22.36;36.94;98407.13;6003219;29;99050;-61
2023/04/29 16:26:46;;;;;;;;;15.00;13.00;;;;;22.34;37.46;98407.44;6004142;29;96763;-61
2023/04/29 16:29:50;;;;;;;;;14.00;12.60;;;;;22.25;36.85;98409.28;5986247;29;96385;-61
2023/04/29 16:32:57;;;;;;;;;13.67;13.67;;;;;22.18;37.21;98411.66;6002711;29;96285;-61
2023/04/29 16:36:01;;;;;;;;;15.00;14.00;;;;;22.09;37.45;98418.97;6009755;29;96356;-62
2023/04/29 16:39:05;;;;;;;;;13.00;12.80;;;;;22.06;37.41;98416.84;6003325;29;96327;-61
2023/04/29 16:42:08;;;;;;;;;15.00;12.75;;;;;21.98;37.54;98423.06;6001428;29;96602;-61
2023/04/29 16:45:13;;;;;;;;;12.60;12.60;;;;;21.89;38.12;98427.63;6003572;29;96893;-61
2023/04/29 16:48:18;;;;;;;;;12.00;12.00;;;;;21.82;38.43;98414.31;6004411;29;96549;-61
2023/04/29 16:51:22;;;;;;;;;12.25;12.00;;;;;21.74;38.59;98423.28;5987390;29;96863;-60
2023/04/29 16:54:26;;;;;;;;;11.00;11.00;;;;;21.67;38.15;98422.84;6003966;29;96873;-61
2023/04/29 16:57:30;;;;;;;;;12.00;12.00;;;;;21.57;38.34;98425.81;6004169;29;96357;-61
2023/04/29 17:00:34;;;;;;;;;13.60;12.00;;;;;21.50;38.72;98433.63;6001612;29;96381;-63
2023/04/29 17:03:38;;;;;;;;;15.00;13.00;;;;;21.41;38.89;98430.75;5974060;29;96526;-63
2023/04/29 17:06:42;;;;;;;;;13.60;12.40;;;;;21.36;39.31;98441.00;5973666;29;96522;-63
2023/04/29 17:09:47;;;;;;;;;13.00;13.00;;;;;21.32;39.36;98434.50;5967837;29;98431;-63
2023/04/29 17:12:50;;;;;;;;;13.00;12.40;;;;;21.24;40.14;98435.22;5970385;29;96294;-63
2023/04/29 17:15:53;;;;;;;;;16.00;14.00;;;;;21.16;40.23;98443.00;5971851;29;98070;-63
2023/04/29 17:18:58;;;;;;;;;15.60;14.60;;;;;21.12;40.77;98446.63;5972624;29;96670;-63
2023/04/29 17:22:02;;;;;;;;;17.50;16.00;;;;;21.04;41.35;98450.06;5971849;29;96532;-63
2023/04/29 17:25:07;;;;;;;;;18.00;16.67;;;;;20.97;41.62;98444.13;5972719;29;96636;-62
2023/04/29 17:28:10;;;;;;;;;16.00;16.00;;;;;20.90;41.71;98451.94;5975469;29;96888;-62
2023/04/29 17:31:14;;;;;;;;;15.00;15.00;;;;;20.77;41.72;98449.97;5965936;29;97163;-63
2023/04/29 17:34:22;;;;;;;;;14.00;14.00;;;;;20.73;42.50;98449.75;5970607;29;97527;-63
2023/04/29 17:37:26;;;;;;;;;16.40;15.40;;;;;20.64;42.33;98455.09;5986491;29;96952;-63
2023/04/29 17:40:29;;;;;;;;;16.00;15.50;;;;;20.59;42.79;98454.34;5973016;29;96770;-63
2023/04/29 17:43:34;;;;;;;;;20.00;19.40;;;;;20.54;43.57;98459.91;5970441;29;96571;-63
2023/04/29 17:46:38;;;;;;;;;17.20;16.20;;;;;20.50;44.00;98470.63;5970835;29;97039;-62
2023/04/29 17:49:43;;;;;;;;;19.00;18.00;;;;;20.44;44.66;98466.34;5970700;29;98376;-63
2023/04/29 17:52:46;;;;;;;;;18.00;17.00;;;;;20.43;44.88;98481.13;5968445;29;96324;-63
2023/04/29 17:55:50;;;;;;;;;18.60;18.60;;;;;20.37;45.49;98471.38;5970885;29;96733;-62
2023/04/29 17:58:53;;;;;;;;;15.40;13.00;;;;;20.24;46.39;98475.63;5979999;29;96630;-62
2023/04/29 18:01:57;;;;;;;;;19.20;18.80;;;;;20.12;48.29;98485.38;5973910;29;97448;-63
2023/04/29 18:05:03;;;;;;;;;17.20;16.20;;;;;19.95;49.22;98477.63;5973092;29;98204;-62